Time;durP1;ratioP1;P1;durP2;ratioP2;P2;SDS_P1;SDS_P2;PMS_P1;PMS_P2;Temp;Humidity;BMP_temperature;BMP_pressure;BME280_temperature;BME280_humidity;BME280_pressure;Samples;Min_cycle;Max_cycle;Signal;HPM_P1;HPM_P2
2023/07/27 00:03:54;;;;;;;3.25;1.70;;;;;;;17.86;60.99;100044.75;10503840;28;20068;-71
2023/07/27 00:08:56;;;;;;;2.47;1.38;;;;;;;17.82;61.20;100040.81;10507093;28;20044;-73
2023/07/27 00:13:58;;;;;;;4.32;1.45;;;;;;;17.73;61.26;100036.75;10501189;28;20048;-73
2023/07/27 00:18:59;;;;;;;3.47;1.90;;;;;;;17.69;61.57;100041.00;10502280;28;20052;-72
2023/07/27 00:24:01;;;;;;;4.53;1.55;;;;;;;17.67;61.61;100043.13;10502132;28;20075;-72
2023/07/27 00:29:02;;;;;;;3.17;2.08;;;;;;;17.64;61.55;100045.22;10507106;28;20107;-72
2023/07/27 00:34:04;;;;;;;3.58;1.67;;;;;;;17.63;61.90;100038.16;10503365;28;20115;-73
2023/07/27 00:39:05;;;;;;;3.75;1.58;;;;;;;17.66;61.70;100041.47;10502191;28;20261;-73
2023/07/27 00:44:07;;;;;;;3.65;1.90;;;;;;;17.66;61.80;100027.88;10503330;28;20104;-72
2023/07/27 00:49:08;;;;;;;3.55;2.38;;;;;;;17.63;61.95;100024.56;10500277;28;20045;-74
2023/07/27 00:54:10;;;;;;;3.05;1.42;;;;;;;17.74;61.74;100016.69;10500015;28;20055;-72
2023/07/27 00:59:12;;;;;;;4.30;1.48;;;;;;;17.80;61.76;100002.16;10500099;28;20064;-72
2023/07/27 01:04:14;;;;;;;5.65;1.80;;;;;;;17.84;61.59;99985.16;10502605;28;20041;-73
2023/07/27 01:09:15;;;;;;;5.72;2.20;;;;;;;17.81;61.79;99992.91;10501297;28;20094;-73
2023/07/27 01:14:19;;;;;;;2.58;1.42;;;;;;;17.70;61.67;99978.25;10499762;28;20429;-72
2023/07/27 01:19:56;;;;;;;3.03;1.70;;;;;;;17.67;62.19;99973.25;10505744;28;20379;-72
2023/07/27 01:25:25;;;;;;;5.35;2.03;;;;;;;17.69;62.20;99959.44;10505486;28;20040;-73
2023/07/27 01:30:47;;;;;;;5.90;1.85;;;;;;;17.65;62.27;99953.63;10506555;28;20040;-73
2023/07/27 01:36:00;;;;;;;4.05;1.85;;;;;;;17.62;62.61;99949.50;10507859;28;20372;-73
2023/07/27 01:41:04;;;;;;;3.33;1.77;;;;;;;17.64;62.36;99941.13;10506447;28;20040;-72
2023/07/27 01:46:07;;;;;;;3.10;1.73;;;;;;;17.67;62.51;99934.38;10511035;28;20056;-73
2023/07/27 01:51:10;;;;;;;5.72;1.88;;;;;;;17.63;62.46;99934.84;10506810;28;20052;-73
2023/07/27 01:56:13;;;;;;;7.85;1.77;;;;;;;17.60;62.55;99921.72;10506665;28;20060;-73
2023/07/27 02:01:15;;;;;;;4.82;1.88;;;;;;;17.53;62.71;99914.72;10511375;28;20059;-73
2023/07/27 02:06:17;;;;;;;2.50;1.50;;;;;;;17.51;62.79;99922.28;10507148;28;20248;-72
2023/07/27 02:11:20;;;;;;;4.80;1.98;;;;;;;17.42;63.40;99913.66;10507115;28;20052;-70
2023/07/27 02:16:53;;;;;;;3.60;1.50;;;;;;;17.45;62.81;99905.84;10508364;28;20098;-70
2023/07/27 02:21:55;;;;;;;3.38;1.90;;;;;;;17.41;63.04;99901.09;10512570;28;20035;-70
2023/07/27 02:26:57;;;;;;;6.88;2.03;;;;;;;17.42;62.94;99892.72;10505160;28;20047;-71
2023/07/27 02:31:59;;;;;;;4.55;1.88;;;;;;;17.39;63.06;99901.34;10505565;28;20076;-71
2023/07/27 02:37:00;;;;;;;4.78;1.98;;;;;;;17.43;63.11;99893.56;10506709;28;20055;-73
2023/07/27 02:42:01;;;;;;;3.42;1.67;;;;;;;17.49;62.81;99897.22;10503108;28;20070;-72
2023/07/27 02:47:03;;;;;;;4.60;2.03;;;;;;;17.43;63.00;99899.81;10504844;28;20083;-72
2023/07/27 02:52:04;;;;;;;4.10;2.05;;;;;;;17.42;62.79;99890.00;10506316;28;20257;-72
2023/07/27 02:57:06;;;;;;;7.32;1.60;;;;;;;17.48;62.94;99884.72;10507060;28;20139;-71
2023/07/27 03:02:07;;;;;;;2.95;1.95;;;;;;;17.51;63.06;99887.78;10504526;28;20538;-72
2023/07/27 03:07:09;;;;;;;3.72;2.67;;;;;;;17.48;62.93;99888.25;10504884;28;20333;-72
2023/07/27 03:12:12;;;;;;;4.00;2.00;;;;;;;17.55;63.16;99886.25;10509192;28;20128;-72
2023/07/27 03:17:13;;;;;;;5.68;2.38;;;;;;;17.50;63.23;99896.19;10503909;28;20087;-72
2023/07/27 03:22:14;;;;;;;4.90;2.50;;;;;;;17.56;63.17;99885.19;10505279;28;20046;-72
2023/07/27 03:27:17;;;;;;;4.93;1.75;;;;;;;17.60;62.79;99878.22;10503670;28;20074;-72
2023/07/27 03:32:18;;;;;;;4.47;2.42;;;;;;;17.61;62.89;99877.19;10508471;28;20044;-72
2023/07/27 03:37:19;;;;;;;2.95;1.63;;;;;;;17.62;62.79;99878.81;10504218;28;20252;-72
2023/07/27 03:42:21;;;;;;;4.63;2.05;;;;;;;17.58;63.16;99864.03;10502368;28;20514;-72
2023/07/27 03:47:22;;;;;;;4.82;1.92;;;;;;;17.62;63.12;99865.22;10506221;28;20060;-68
2023/07/27 03:52:24;;;;;;;3.63;1.80;;;;;;;17.53;63.29;99853.03;10502440;28;20064;-69
2023/07/27 03:57:25;;;;;;;4.03;1.98;;;;;;;17.61;62.99;99852.72;10502675;28;20115;-69
2023/07/27 04:02:27;;;;;;;3.83;1.85;;;;;;;17.57;63.18;99845.25;10502108;28;20432;-68
2023/07/27 04:07:29;;;;;;;3.67;2.15;;;;;;;17.63;63.04;99842.44;10504406;28;20136;-69
2023/07/27 04:12:30;;;;;;;4.93;2.30;;;;;;;17.50;63.65;99839.13;10501265;28;20119;-69
2023/07/27 04:17:32;;;;;;;6.35;1.85;;;;;;;17.43;63.99;99833.78;10499579;28;20057;-70
2023/07/27 04:22:33;;;;;;;4.20;2.58;;;;;;;17.41;64.16;99834.00;10500619;28;20060;-68
2023/07/27 04:27:35;;;;;;;3.30;1.83;;;;;;;17.34;64.69;99837.91;10503953;28;20049;-69
2023/07/27 04:32:37;;;;;;;6.30;2.78;;;;;;;17.22;65.14;99830.56;10502277;28;20105;-70
2023/07/27 04:37:38;;;;;;;4.07;2.42;;;;;;;17.18;65.50;99831.22;10501202;28;20047;-69
2023/07/27 04:42:39;;;;;;;4.43;2.50;;;;;;;16.99;65.96;99830.47;10504040;28;20068;-69
2023/07/27 04:47:41;;;;;;;6.20;2.47;;;;;;;17.04;65.91;99827.88;10498386;28;20060;-68
2023/07/27 04:52:42;;;;;;;3.92;2.40;;;;;;;16.93;66.53;99832.22;10501978;28;20051;-68
2023/07/27 04:57:44;;;;;;;5.63;2.95;;;;;;;17.01;66.44;99828.38;10500322;28;20048;-68
2023/07/27 05:02:45;;;;;;;4.00;2.33;;;;;;;17.10;66.49;99832.41;10501341;28;20066;-70
2023/07/27 05:07:47;;;;;;;6.03;2.35;;;;;;;17.01;66.81;99821.03;10490771;28;20045;-69
2023/07/27 05:12:48;;;;;;;8.30;2.53;;;;;;;17.08;66.65;99812.81;10501018;28;20099;-69
2023/07/27 05:17:49;;;;;;;6.22;2.97;;;;;;;17.24;66.74;99817.56;10503691;28;20073;-69
2023/07/27 05:22:51;;;;;;;4.78;2.55;;;;;;;17.27;66.72;99810.81;10497132;28;20049;-69
2023/07/27 05:27:52;;;;;;;6.20;2.78;;;;;;;17.29;66.94;99800.56;10497624;28;20052;-69
2023/07/27 05:32:54;;;;;;;10.70;2.95;;;;;;;17.40;66.79;99802.47;10496296;28;20041;-70
2023/07/27 05:37:55;;;;;;;7.28;2.70;;;;;;;17.42;66.77;99805.78;10503679;28;20100;-69
2023/07/27 05:42:57;;;;;;;3.42;2.00;;;;;;;17.21;67.61;99795.47;10499083;28;20071;-70
2023/07/27 05:47:58;;;;;;;5.20;2.42;;;;;;;17.22;67.76;99792.53;10498258;28;20424;-69
2023/07/27 05:53:00;;;;;;;5.70;2.47;;;;;;;17.19;68.05;99787.53;10501696;28;20052;-69
2023/07/27 05:58:01;;;;;;;4.63;2.58;;;;;;;17.23;68.03;99782.47;10498019;28;20059;-69
2023/07/27 06:03:23;;;;;;;4.75;2.75;;;;;;;17.31;67.87;99784.84;10497316;28;20056;-70
2023/07/27 06:08:25;;;;;;;5.18;2.53;;;;;;;17.33;67.88;99781.91;10498683;28;20075;-68
2023/07/27 06:13:27;;;;;;;4.18;2.58;;;;;;;17.40;67.78;99778.00;10507150;28;20044;-69
2023/07/27 06:18:28;;;;;;;4.28;2.22;;;;;;;17.44;67.88;99781.09;10505827;28;20230;-69
2023/07/27 06:23:29;;;;;;;4.20;2.63;;;;;;;17.54;67.44;99775.06;10507596;28;20270;-68
2023/07/27 06:28:31;;;;;;;8.13;3.28;;;;;;;17.66;67.47;99758.75;10509609;28;20115;-67
2023/07/27 06:33:32;;;;;;;4.88;2.65;;;;;;;17.70;67.43;99759.94;10504523;28;20105;-69
2023/07/27 06:38:45;;;;;;;4.05;2.65;;;;;;;17.76;67.41;99762.53;10504947;28;20049;-69
2023/07/27 06:43:47;;;;;;;8.50;3.50;;;;;;;17.78;67.54;99759.56;10504132;28;20108;-67
2023/07/27 06:48:48;;;;;;;3.53;2.35;;;;;;;17.79;67.71;99762.06;10510397;28;20060;-69
2023/07/27 06:53:50;;;;;;;5.85;3.22;;;;;;;17.80;67.85;99757.44;10506236;28;20103;-70
2023/07/27 06:58:51;;;;;;;8.52;2.90;;;;;;;17.75;68.18;99758.16;10504267;28;20040;-68
2023/07/27 07:03:53;;;;;;;7.30;3.05;;;;;;;17.74;68.36;99756.50;10510303;28;20319;-70
2023/07/27 07:08:54;;;;;;;7.70;3.08;;;;;;;17.79;68.29;99745.75;10501395;28;20240;-71
2023/07/27 07:13:56;;;;;;;8.52;3.85;;;;;;;17.71;68.93;99740.66;10503513;28;20108;-70
2023/07/27 07:18:57;;;;;;;7.00;3.78;;;;;;;17.64;69.35;99727.19;10505046;28;20068;-68
2023/07/27 07:23:58;;;;;;;4.40;3.67;;;;;;;17.49;70.06;99728.75;10506496;28;20108;-70
2023/07/27 07:29:00;;;;;;;7.72;3.60;;;;;;;17.49;70.46;99718.69;10504164;28;20125;-69
2023/07/27 07:34:01;;;;;;;5.22;2.70;;;;;;;17.47;70.82;99728.16;10504479;28;20055;-69
2023/07/27 07:39:03;;;;;;;4.30;2.38;;;;;;;17.40;71.13;99741.88;10508418;28;20063;-71
2023/07/27 07:44:04;;;;;;;5.38;2.60;;;;;;;17.33;71.63;99741.97;10504369;28;20414;-69
2023/07/27 07:49:06;;;;;;;6.70;2.90;;;;;;;17.29;71.78;99727.19;10501735;28;20074;-69
2023/07/27 07:54:09;;;;;;;6.70;3.40;;;;;;;17.10;72.26;99728.38;10500282;28;20054;-69
2023/07/27 07:59:11;;;;;;;6.45;2.40;;;;;;;16.95;73.03;99705.22;10506028;28;20040;-69
2023/07/27 08:04:12;;;;;;;9.38;3.38;;;;;;;16.92;73.67;99699.41;10500388;28;20115;-67
2023/07/27 08:09:14;;;;;;;4.78;2.80;;;;;;;16.90;74.30;99686.06;10499171;28;20116;-69
2023/07/27 08:14:15;;;;;;;6.05;2.55;;;;;;;16.90;74.84;99679.81;10505919;28;20060;-69
2023/07/27 08:19:16;;;;;;;6.32;2.40;;;;;;;16.82;75.17;99683.69;10499099;28;20048;-68
2023/07/27 08:24:18;;;;;;;5.47;2.85;;;;;;;16.97;75.26;99664.25;10500764;28;20056;-69
2023/07/27 08:29:22;;;;;;;8.98;3.33;;;;;;;17.15;75.59;99650.56;10499599;28;20310;-67
2023/07/27 08:34:24;;;;;;;3.38;2.00;;;;;;;17.04;76.14;99645.94;10505108;28;20074;-68
2023/07/27 08:39:25;;;;;;;5.20;2.30;;;;;;;17.04;76.21;99644.06;10495899;28;20339;-68
2023/07/27 08:44:27;;;;;;;8.23;2.50;;;;;;;16.96;76.44;99630.84;10499881;28;20055;-68
2023/07/27 08:49:30;;;;;;;5.78;1.83;;;;;;;16.82;76.87;99638.41;10504768;28;20062;-68
2023/07/27 08:54:31;;;;;;;4.32;1.83;;;;;;;16.84;76.88;99643.56;10500546;28;20048;-69
2023/07/27 08:59:35;;;;;;;4.80;2.00;;;;;;;16.86;76.91;99633.31;10500669;28;20490;-68
2023/07/27 09:04:37;;;;;;;5.88;2.95;;;;;;;16.80;76.98;99639.66;10499713;28;20048;-69
2023/07/27 09:09:39;;;;;;;5.22;2.30;;;;;;;16.74;77.19;99632.44;10503457;28;20044;-69
2023/07/27 09:14:40;;;;;;;4.18;2.65;;;;;;;16.73;77.06;99645.19;10500598;28;20057;-70
2023/07/27 09:19:43;;;;;;;6.03;2.50;;;;;;;16.78;76.68;99634.44;10498610;28;20131;-70
2023/07/27 09:24:44;;;;;;;8.75;2.65;;;;;;;16.76;76.67;99633.84;10502684;28;20079;-67
2023/07/27 09:29:46;;;;;;;6.45;2.95;;;;;;;16.79;76.58;99630.69;10504211;28;20295;-69
2023/07/27 09:34:54;;;;;;;6.65;3.38;;;;;;;16.83;76.64;99618.31;10499859;28;20048;-69
2023/07/27 09:40:10;;;;;;;5.65;3.20;;;;;;;16.81;76.85;99617.72;10498514;28;20052;-68
2023/07/27 09:45:13;;;;;;;6.10;2.72;;;;;;;16.88;76.55;99622.22;10505069;28;20162;-69
2023/07/27 09:50:16;;;;;;;9.20;3.40;;;;;;;16.96;76.58;99619.16;10506622;28;20672;-69
2023/07/27 09:55:18;;;;;;;5.05;4.00;;;;;;;17.04;76.66;99591.63;10507051;28;20115;-69
2023/07/27 10:00:19;;;;;;;8.63;4.85;;;;;;;17.03;76.71;99601.69;10504775;28;20044;-69
2023/07/27 10:05:22;;;;;;;9.23;5.00;;;;;;;17.07;76.85;99609.38;10511502;28;20375;-69
2023/07/27 10:10:32;;;;;;;9.38;4.40;;;;;;;17.29;76.78;99588.66;10506369;28;20041;-68
2023/07/27 10:15:41;;;;;;;7.63;4.43;;;;;;;17.36;76.80;99599.41;10497669;28;20108;-69
2023/07/27 10:20:42;;;;;;;6.22;4.13;;;;;;;17.41;76.99;99591.34;10511236;28;20052;-69
2023/07/27 10:25:53;;;;;;;6.72;4.70;;;;;;;17.56;77.05;99590.84;10507536;28;20071;-68
2023/07/27 10:31:28;;;;;;;7.22;4.40;;;;;;;17.57;77.14;99587.88;10505839;28;20123;-68
2023/07/27 10:36:51;;;;;;;7.18;4.28;;;;;;;17.58;77.28;99586.00;10502597;28;20045;-69
2023/07/27 10:42:03;;;;;;;7.30;4.50;;;;;;;17.75;77.25;99567.03;10510409;28;20047;-69
2023/07/27 10:47:08;;;;;;;10.65;4.97;;;;;;;17.80;77.08;99562.50;10508366;28;20040;-68
2023/07/27 10:52:14;;;;;;;7.38;4.10;;;;;;;17.75;77.46;99567.88;10505627;28;20052;-68
2023/07/27 10:57:17;;;;;;;7.07;3.95;;;;;;;17.79;77.46;99566.31;10504942;28;20283;-68
2023/07/27 11:02:27;;;;;;;6.38;3.50;;;;;;;17.81;77.36;99569.63;10508430;28;20040;-69
2023/07/27 11:07:31;;;;;;;6.10;2.78;;;;;;;17.74;77.50;99563.50;10503527;28;20037;-68
2023/07/27 11:12:46;;;;;;;6.15;3.42;;;;;;;17.72;77.47;99548.50;10506166;28;20107;-67
2023/07/27 11:17:49;;;;;;;5.20;3.50;;;;;;;17.70;77.35;99556.06;10508015;28;20120;-68
2023/07/27 11:22:52;;;;;;;8.40;4.18;;;;;;;17.71;77.34;99565.84;10504974;28;20049;-69
2023/07/27 11:27:55;;;;;;;6.88;4.05;;;;;;;17.74;77.21;99557.22;10504454;28;20054;-71
2023/07/27 11:33:04;;;;;;;6.85;4.28;;;;;;;17.75;77.10;99551.56;10500567;28;20120;-69
2023/07/27 11:38:06;;;;;;;6.28;4.28;;;;;;;17.80;77.35;99531.78;10507482;28;20052;-72
2023/07/27 11:43:07;;;;;;;7.30;4.63;;;;;;;17.84;77.16;99519.38;10503935;28;20052;-70
2023/07/27 11:48:09;;;;;;;5.30;4.13;;;;;;;17.75;77.43;99524.38;10498348;28;20059;-69
2023/07/27 11:53:11;;;;;;;9.38;4.57;;;;;;;17.73;77.56;99525.66;10500886;28;20481;-70
2023/07/27 11:58:30;;;;;;;9.50;4.18;;;;;;;17.61;77.83;99520.28;10505516;28;20099;-69
2023/07/27 12:03:31;;;;;;;6.63;5.07;;;;;;;17.66;77.56;99536.69;10504757;28;20063;-69
2023/07/27 12:08:37;;;;;;;9.68;5.07;;;;;;;17.67;77.68;99535.63;10501405;28;20131;-67
2023/07/27 12:13:43;;;;;;;10.15;6.15;;;;;;;17.68;77.71;99536.47;10504966;28;20099;-68
2023/07/27 12:18:48;;;;;;;9.70;6.78;;;;;;;17.78;77.30;99532.03;10505002;28;20059;-67
2023/07/27 12:23:51;;;;;;;11.32;6.70;;;;;;;17.90;77.30;99539.34;10501585;28;20044;-67
2023/07/27 12:28:55;;;;;;;11.00;5.75;;;;;;;17.99;77.34;99535.97;10501686;28;20151;-68
2023/07/27 12:34:17;;;;;;;10.55;6.05;;;;;;;18.00;77.48;99542.25;10504518;28;20174;-67
2023/07/27 12:39:21;;;;;;;10.13;6.10;;;;;;;18.01;77.40;99528.41;10499549;28;20387;-67
2023/07/27 12:44:22;;;;;;;15.68;6.82;;;;;;;18.08;77.35;99521.97;10500770;28;20287;-67
2023/07/27 12:49:24;;;;;;;10.18;6.63;;;;;;;18.18;77.17;99528.41;10501212;28;20048;-67
2023/07/27 12:54:25;;;;;;;12.90;6.25;;;;;;;18.14;77.53;99527.25;10504225;28;20136;-68
2023/07/27 12:59:27;;;;;;;9.65;5.60;;;;;;;18.23;77.63;99524.97;10500171;28;20051;-67
2023/07/27 13:04:28;;;;;;;9.55;5.50;;;;;;;18.32;77.60;99531.63;10501302;28;20074;-67
2023/07/27 13:09:29;;;;;;;8.70;6.43;;;;;;;18.49;77.66;99520.75;10505037;28;20115;-67
2023/07/27 13:14:31;;;;;;;9.43;6.80;;;;;;;18.77;77.53;99510.81;10499334;28;20059;-69
2023/07/27 13:19:32;;;;;;;8.88;6.20;;;;;;;18.87;77.50;99502.00;10499669;28;20276;-68
2023/07/27 13:24:34;;;;;;;10.63;5.43;;;;;;;18.86;77.94;99500.31;10499673;28;20421;-68
2023/07/27 13:29:35;;;;;;;11.77;6.43;;;;;;;18.79;78.23;99500.50;10506405;28;20112;-67
2023/07/27 13:34:36;;;;;;;11.23;5.75;;;;;;;18.93;78.02;99493.63;10500901;28;20416;-68
2023/07/27 13:39:39;;;;;;;8.15;5.70;;;;;;;18.98;78.12;99493.69;10498883;28;20111;-68
2023/07/27 13:44:40;;;;;;;10.15;5.20;;;;;;;19.03;78.19;99493.75;10502989;28;20045;-68
2023/07/27 13:49:42;;;;;;;6.55;4.95;;;;;;;19.03;78.26;99501.09;10498607;28;20048;-68
2023/07/27 13:54:43;;;;;;;6.60;4.65;;;;;;;19.07;78.13;99485.91;10494943;28;20075;-67
2023/07/27 13:59:45;;;;;;;8.80;5.18;;;;;;;19.12;78.38;99490.63;10500547;28;20352;-69
2023/07/27 14:04:46;;;;;;;9.55;5.05;;;;;;;19.24;78.10;99476.84;10502939;28;20059;-70
2023/07/27 14:09:49;;;;;;;7.20;4.95;;;;;;;19.19;78.02;99478.44;10499024;28;20040;-69
2023/07/27 14:14:50;;;;;;;9.13;4.75;;;;;;;19.11;78.19;99475.31;10496123;28;20110;-68
2023/07/27 14:19:51;;;;;;;8.75;4.50;;;;;;;19.09;78.29;99472.84;10504004;28;20111;-69
2023/07/27 14:24:53;;;;;;;53.08;27.35;;;;;;;19.09;78.36;99463.88;10501115;28;20367;-70
2023/07/27 14:29:54;;;;;;;8.82;4.80;;;;;;;19.09;78.13;99472.84;10498306;28;20487;-70
2023/07/27 14:34:56;;;;;;;11.18;5.30;;;;;;;19.07;78.27;99474.19;10505615;28;20492;-69
2023/07/27 14:39:57;;;;;;;8.95;5.32;;;;;;;19.15;78.31;99474.56;10508602;28;20113;-70
2023/07/27 14:44:59;;;;;;;8.77;5.45;;;;;;;19.24;77.96;99474.13;10505398;28;20044;-70
2023/07/27 14:50:00;;;;;;;11.57;5.25;;;;;;;19.31;78.29;99472.88;10505926;28;20128;-70
2023/07/27 14:55:03;;;;;;;6.78;4.40;;;;;;;19.41;78.48;99461.22;10507373;28;20044;-68
2023/07/27 15:00:05;;;;;;;7.25;4.80;;;;;;;19.46;78.56;99457.75;10508740;28;20393;-70
2023/07/27 15:05:10;;;;;;;7.57;4.63;;;;;;;19.65;78.40;99455.47;10504321;28;20117;-70
2023/07/27 15:10:12;;;;;;;8.65;5.10;;;;;;;19.80;78.04;99445.56;10504615;28;20045;-70
2023/07/27 15:15:35;;;;;;;7.90;4.53;;;;;;;19.91;78.10;99451.94;10506414;28;20407;-69
2023/07/27 15:20:41;;;;;;;8.00;3.72;;;;;;;20.01;78.02;99449.28;10504875;28;20064;-69
2023/07/27 15:25:42;;;;;;;6.30;3.50;;;;;;;20.01;78.06;99445.75;10502139;28;20048;-70
2023/07/27 15:30:44;;;;;;;4.88;3.35;;;;;;;20.06;78.32;99439.50;10503692;28;20375;-70
2023/07/27 15:35:47;;;;;;;6.00;3.15;;;;;;;20.07;78.24;99432.97;10504745;28;20283;-69
2023/07/27 15:40:51;;;;;;;6.72;4.50;;;;;;;20.22;77.95;99438.50;10503113;28;20331;-70
2023/07/27 15:45:53;;;;;;;8.02;3.10;;;;;;;20.29;77.60;99433.66;10502466;28;20100;-72
2023/07/27 15:50:54;;;;;;;5.32;3.28;;;;;;;20.35;77.53;99438.06;10507083;28;20115;-71
2023/07/27 15:55:56;;;;;;;18.60;8.82;;;;;;;20.37;77.76;99437.81;10502835;28;20111;-71
2023/07/27 16:00:58;;;;;;;6.00;2.42;;;;;;;20.42;77.66;99435.13;10503805;28;20093;-69
2023/07/27 16:06:04;;;;;;;4.72;1.05;;;;;;;20.36;77.46;99434.25;10502603;28;20063;-69
2023/07/27 16:11:10;;;;;;;2.60;1.10;;;;;;;20.29;77.35;99443.75;10506762;28;20056;-71
2023/07/27 16:16:11;;;;;;;2.20;0.87;;;;;;;20.21;77.72;99439.63;10504169;28;20048;-69
2023/07/27 16:21:13;;;;;;;2.90;1.30;;;;;;;20.18;77.15;99434.66;10500275;28;20055;-71
2023/07/27 16:26:15;;;;;;;1.73;1.00;;;;;;;20.21;77.02;99440.44;10506018;28;20091;-70
2023/07/27 16:31:16;;;;;;;1.67;1.00;;;;;;;20.24;76.78;99439.09;10500422;28;20111;-71
2023/07/27 16:36:18;;;;;;;1.50;1.10;;;;;;;20.24;77.07;99439.09;10499852;28;20052;-71
2023/07/27 16:41:19;;;;;;;3.50;1.10;;;;;;;20.21;76.71;99453.25;10497588;28;20044;-69
2023/07/27 16:46:21;;;;;;;2.38;1.08;;;;;;;20.10;77.49;99435.16;10504017;28;20159;-69
2023/07/27 16:51:22;;;;;;;4.60;1.00;;;;;;;20.03;77.63;99437.31;10501142;28;20055;-71
2023/07/27 16:56:23;;;;;;;1.85;1.10;;;;;;;20.08;77.18;99432.69;10501067;28;20680;-70
2023/07/27 17:01:25;;;;;;;2.85;1.27;;;;;;;19.91;77.85;99446.47;10505830;28;20302;-70
2023/07/27 17:06:27;;;;;;;5.65;1.02;;;;;;;19.85;78.42;99442.06;10500129;28;20360;-71
2023/07/27 17:11:28;;;;;;;10.18;3.92;;;;;;;19.95;77.71;99438.59;10499567;28;20119;-70
2023/07/27 17:16:29;;;;;;;4.60;1.58;;;;;;;19.99;77.58;99435.09;10498445;28;20040;-69
2023/07/27 17:21:31;;;;;;;11.02;5.55;;;;;;;20.00;78.05;99438.63;10504175;28;20050;-70
2023/07/27 17:26:32;;;;;;;3.15;2.05;;;;;;;20.00;77.60;99450.38;10500910;28;20059;-70
2023/07/27 17:31:34;;;;;;;8.82;2.13;;;;;;;19.92;77.94;99456.28;10500378;28;20116;-69
2023/07/27 17:36:36;;;;;;;3.95;1.80;;;;;;;19.90;78.24;99444.81;10503500;28;20056;-71
2023/07/27 17:41:37;;;;;;;8.00;3.10;;;;;;;19.75;78.75;99448.25;10496106;28;20048;-71
2023/07/27 17:46:39;;;;;;;5.47;2.97;;;;;;;19.71;78.81;99451.72;10498612;28;20036;-70
2023/07/27 17:51:40;;;;;;;6.95;3.88;;;;;;;19.71;78.82;99457.19;10497717;28;20067;-70
2023/07/27 17:56:42;;;;;;;6.43;4.30;;;;;;;19.68;78.86;99457.69;10497215;28;20056;-70
2023/07/27 18:01:43;;;;;;;6.28;4.25;;;;;;;19.67;79.09;99454.16;10500259;28;20117;-70
2023/07/27 18:06:44;;;;;;;10.13;4.05;;;;;;;19.65;79.36;99450.00;10502720;28;20052;-70
2023/07/27 18:11:46;;;;;;;7.03;3.75;;;;;;;19.62;79.52;99452.19;10509971;28;20079;-70
2023/07/27 18:16:47;;;;;;;6.25;3.78;;;;;;;19.64;79.74;99449.19;10502397;28;20051;-69
2023/07/27 18:21:49;;;;;;;7.32;4.40;;;;;;;19.63;79.67;99447.56;10505913;28;20052;-70
2023/07/27 18:26:50;;;;;;;7.25;4.32;;;;;;;19.65;79.72;99450.00;10506468;28;20103;-71
2023/07/27 18:31:52;;;;;;;9.55;5.20;;;;;;;19.69;79.73;99448.41;10510699;28;20048;-71
2023/07/27 18:36:53;;;;;;;6.15;4.00;;;;;;;19.67;79.95;99459.59;10506361;28;20115;-70
2023/07/27 18:41:54;;;;;;;9.98;5.00;;;;;;;19.57;80.22;99454.88;10503012;28;20266;-70
2023/07/27 18:46:58;;;;;;;8.02;5.25;;;;;;;19.54;80.37;99451.81;10504948;28;20265;-69
2023/07/27 18:52:00;;;;;;;8.32;4.72;;;;;;;19.62;80.29;99446.72;10509010;28;20136;-70
2023/07/27 18:57:01;;;;;;;13.23;5.55;;;;;;;19.63;79.99;99453.03;10506126;28;20052;-70
2023/07/27 19:02:03;;;;;;;9.18;5.35;;;;;;;19.61;80.09;99453.28;10502913;28;20074;-70
2023/07/27 19:07:05;;;;;;;11.38;4.82;;;;;;;19.57;80.60;99452.13;10508004;28;20251;-70
2023/07/27 19:12:06;;;;;;;9.43;5.55;;;;;;;19.59;80.44;99460.88;10503355;28;20066;-70
2023/07/27 19:17:08;;;;;;;10.05;5.50;;;;;;;19.48;81.00;99466.50;10503509;28;20108;-72
2023/07/27 19:22:09;;;;;;;10.70;6.30;;;;;;;19.49;80.88;99462.66;10506375;28;20728;-72
2023/07/27 19:27:11;;;;;;;60.75;25.45;;;;;;;19.47;80.98;99468.41;10510498;28;20119;-72
2023/07/27 19:32:13;;;;;;;32.35;11.88;;;;;;;19.55;80.84;99470.66;10504324;28;20103;-72
2023/07/27 19:37:14;;;;;;;16.45;6.32;;;;;;;19.49;81.00;99476.31;10504417;28;20123;-72
2023/07/27 19:42:15;;;;;;;12.20;6.03;;;;;;;19.56;80.85;99476.94;10506855;28;20057;-73
2023/07/27 19:47:17;;;;;;;9.35;5.30;;;;;;;19.57;80.80;99473.94;10503094;28;20060;-73
2023/07/27 19:52:18;;;;;;;9.68;4.57;;;;;;;19.53;81.02;99475.56;10503876;28;20060;-73
2023/07/27 19:57:20;;;;;;;8.07;4.50;;;;;;;19.52;81.16;99479.34;10503777;28;20048;-73
2023/07/27 20:02:22;;;;;;;7.43;3.22;;;;;;;19.48;81.35;99488.28;10506805;28;20292;-73
2023/07/27 20:07:24;;;;;;;5.03;3.13;;;;;;;19.42;81.44;99490.13;10502244;28;20052;-72
2023/07/27 20:12:25;;;;;;;4.50;2.55;;;;;;;19.34;81.53;99479.69;10501187;28;20036;-73
2023/07/27 20:17:27;;;;;;;5.28;2.55;;;;;;;19.33;81.55;99483.47;10503956;28;20067;-73
2023/07/27 20:22:28;;;;;;;6.05;2.58;;;;;;;19.30;81.23;99482.09;10501609;28;20052;-72
2023/07/27 20:27:30;;;;;;;9.00;4.40;;;;;;;19.25;81.63;99476.56;10502508;28;20051;-73
2023/07/27 20:32:31;;;;;;;22.83;7.70;;;;;;;19.24;81.56;99495.94;10501718;28;20163;-73
2023/07/27 20:37:32;;;;;;;13.75;6.25;;;;;;;19.24;81.69;99485.84;10505642;28;20281;-71
2023/07/27 20:42:34;;;;;;;4.88;2.88;;;;;;;19.25;81.81;99484.75;10501141;28;20117;-72
2023/07/27 20:47:36;;;;;;;4.97;2.90;;;;;;;19.31;81.46;99485.63;10501676;28;20066;-73
2023/07/27 20:52:37;;;;;;;6.72;3.25;;;;;;;19.33;81.48;99480.75;10506003;28;20040;-73
2023/07/27 20:57:38;;;;;;;7.00;3.50;;;;;;;19.35;81.50;99475.88;10500343;28;20053;-72
2023/07/27 21:02:41;;;;;;;6.78;3.38;;;;;;;19.35;81.74;99470.44;10499734;28;20319;-74
2023/07/27 21:07:42;;;;;;;8.88;3.88;;;;;;;19.36;81.66;99459.28;10500121;28;20104;-73
2023/07/27 21:12:44;;;;;;;6.85;2.40;;;;;;;19.28;81.86;99461.66;10503752;28;20048;-74
2023/07/27 21:17:45;;;;;;;9.23;3.45;;;;;;;19.26;81.67;99458.34;10497079;28;20048;-72
2023/07/27 21:22:46;;;;;;;5.13;2.45;;;;;;;19.32;81.56;99454.59;10496628;28;20048;-73
2023/07/27 21:27:48;;;;;;;5.97;2.05;;;;;;;19.36;81.37;99456.56;10500953;28;20144;-73
2023/07/27 21:32:49;;;;;;;4.93;2.10;;;;;;;19.33;81.52;99461.69;10497759;28;20044;-71
2023/07/27 21:37:51;;;;;;;2.92;1.40;;;;;;;19.32;81.46;99465.50;10497544;28;20078;-74
2023/07/27 21:42:54;;;;;;;2.33;1.23;;;;;;;19.30;81.35;99467.66;10498863;28;20116;-73
2023/07/27 21:47:58;;;;;;;2.53;1.10;;;;;;;19.18;81.39;99474.06;10508865;28;20111;-74
2023/07/27 21:53:00;;;;;;;4.97;1.70;;;;;;;19.17;81.39;99480.59;10503105;28;20044;-73
2023/07/27 21:58:01;;;;;;;3.13;1.77;;;;;;;19.19;81.18;99493.94;10502343;28;20048;-73
2023/07/27 22:03:03;;;;;;;3.10;1.65;;;;;;;19.24;81.17;99485.84;10509852;28;20085;-72
2023/07/27 22:08:05;;;;;;;6.65;1.90;;;;;;;19.31;80.91;99491.94;10504198;28;20091;-74
2023/07/27 22:13:06;;;;;;;3.63;1.80;;;;;;;19.34;80.85;99485.97;10504983;28;20111;-72
2023/07/27 22:18:07;;;;;;;2.83;1.27;;;;;;;19.28;81.17;99480.72;10468370;28;1034807;-73
2023/07/27 22:23:10;;;;;;;3.55;1.50;;;;;;;19.29;80.75;99471.44;10510175;28;20063;-74
2023/07/27 22:28:12;;;;;;;2.25;1.60;;;;;;;19.23;81.07;99476.00;10507940;28;20041;-74
2023/07/27 22:33:14;;;;;;;2.45;1.00;;;;;;;19.27;80.64;99470.88;10506342;28;20121;-73
2023/07/27 22:38:15;;;;;;;7.20;1.40;;;;;;;19.16;80.79;99459.06;10509015;28;20067;-72
2023/07/27 22:43:17;;;;;;;5.35;1.48;;;;;;;19.00;81.28;99460.78;10504918;28;20063;-74
2023/07/27 22:48:19;;;;;;;3.58;1.27;;;;;;;18.97;81.29;99450.38;10503714;28;20048;-73
2023/07/27 22:53:20;;;;;;;4.65;1.30;;;;;;;18.98;81.33;99461.03;10505069;28;20063;-72
2023/07/27 22:58:22;;;;;;;7.15;1.70;;;;;;;19.02;81.18;99469.50;10509258;28;20078;-72
2023/07/27 23:03:23;;;;;;;6.90;1.98;;;;;;;19.09;80.86;99464.69;10502817;28;20044;-71
2023/07/27 23:08:25;;;;;;;4.00;1.65;;;;;;;19.18;80.55;99468.63;10504615;28;20193;-72
2023/07/27 23:13:26;;;;;;;3.15;1.58;;;;;;;19.30;80.49;99460.31;10510366;28;20089;-74
2023/07/27 23:18:30;;;;;;;2.65;1.73;;;;;;;19.33;80.27;99470.69;10504370;28;20058;-71
2023/07/27 23:23:31;;;;;;;7.55;1.98;;;;;;;19.25;80.58;99467.59;10493392;28;20044;-71
2023/07/27 23:28:32;;;;;;;2.45;1.30;;;;;;;19.14;80.86;99472.94;10504830;28;20191;-73